Time;durP1;ratioP1;P1;durP2;ratioP2;P2;SDS_P1;SDS_P2;PMS_P1;PMS_P2;Temp;Humidity;BMP_temperature;BMP_pressure;BME280_temperature;BME280_humidity;BME280_pressure;Samples;Min_cycle;Max_cycle;Signal;HPM_P1;HPM_P2
2023/07/03 00:03:57;;;;;;;8.3;3.6;;;;;;;17.42;81.28;;;;;
2023/07/03 00:13:55;;;;;;;8.3;3.6;;;;;;;17.59;81.03;;;;;
2023/07/03 00:24:55;;;;;;;7.2;3.5;;;;;;;17.66;81.42;;;;;
2023/07/03 00:35:55;;;;;;;7.2;3.5;;;;;;;17.73;80.7;;;;;
2023/07/03 00:45:55;;;;;;;7.2;3.5;;;;;;;17.81;80.22;;;;;
2023/07/03 00:56:55;;;;;;;5.6;3.2;;;;;;;17.79;79.84;;;;;
2023/07/03 01:06:56;;;;;;;5.6;3.2;;;;;;;17.69;79.72;;;;;
2023/07/03 01:16:56;;;;;;;5.6;3.2;;;;;;;17.77;78.92;;;;;
2023/07/03 01:26:55;;;;;;;6.8;4;;;;;;;17.75;78.92;;;;;
2023/07/03 01:37:57;;;;;;;6.8;4;;;;;;;17.46;79.79;;;;;
2023/07/03 01:48:55;;;;;;;6.8;4;;;;;;;17.11;80.85;;;;;
2023/07/03 01:59:55;;;;;;;6;3.8;;;;;;;16.92;81.18;;;;;
2023/07/03 02:09:55;;;;;;;6;3.8;;;;;;;16.68;82.1;;;;;
2023/07/03 02:19:55;;;;;;;6;3.8;;;;;;;16.46;82.78;;;;;
2023/07/03 02:30:55;;;;;;;6.2;3.6;;;;;;;16.34;82.15;;;;;
2023/07/03 02:40:55;;;;;;;6.2;3.6;;;;;;;16.09;81.96;;;;;
2023/07/03 02:50:55;;;;;;;6.2;3.6;;;;;;;15.92;82.15;;;;;
2023/07/03 03:01:55;;;;;;;7.5;4.3;;;;;;;15.72;82.69;;;;;
2023/07/03 03:12:55;;;;;;;7.5;4.3;;;;;;;15.61;83.18;;;;;
2023/07/03 03:22:56;;;;;;;8.4;4.5;;;;;;;15.54;84.45;;;;;
2023/07/03 03:33:55;;;;;;;8.4;4.5;;;;;;;15.58;84.42;;;;;
2023/07/03 03:43:55;;;;;;;8.4;4.5;;;;;;;15.64;84.32;;;;;
2023/07/03 03:54:55;;;;;;;9.4;4.6;;;;;;;15.82;84.71;;;;;
2023/07/03 04:05:55;;;;;;;9.4;4.6;;;;;;;16.18;84.54;;;;;
2023/07/03 04:16:57;;;;;;;9.4;4.6;;;;;;;16.53;84.27;;;;;
2023/07/03 04:26:55;;;;;;;9.2;5.2;;;;;;;16.88;83.68;;;;;
2023/07/03 04:36:55;;;;;;;9.2;5.2;;;;;;;17.2;82.42;;;;;
2023/07/03 04:46:55;;;;;;;9.2;5.2;;;;;;;17.64;80.65;;;;;
2023/07/03 04:57:57;;;;;;;8.1;4.1;;;;;;;18.16;79.5;;;;;
2023/07/03 05:07:55;;;;;;;8.1;4.1;;;;;;;18.57;77.84;;;;;
2023/07/03 05:17:55;;;;;;;8.1;4.1;;;;;;;19.02;76.67;;;;;
2023/07/03 05:27:55;;;;;;;5.9;3.2;;;;;;;19.22;74.06;;;;;
2023/07/03 05:38:55;;;;;;;5.9;3.2;;;;;;;19.72;72.46;;;;;
2023/07/03 05:48:55;;;;;;;5.9;3.2;;;;;;;20.01;71.31;;;;;
2023/07/03 05:58:55;;;;;;;6.9;3.7;;;;;;;20.23;70.76;;;;;
2023/07/03 06:09:57;;;;;;;6.9;3.7;;;;;;;20.52;69.47;;;;;
2023/07/03 06:20:55;;;;;;;6.9;3.7;;;;;;;20.91;68.32;;;;;
2023/07/03 06:30:55;;;;;;;7.1;3.7;;;;;;;21.3;68.3;;;;;
2023/07/03 06:40:55;;;;;;;7.1;3.7;;;;;;;21.66;66.11;;;;;
2023/07/03 06:50:55;;;;;;;7.1;3.7;;;;;;;21.98;64.96;;;;;
2023/07/03 07:00:56;;;;;;;8.8;3.3;;;;;;;22.11;60.44;;;;;
2023/07/03 07:10:55;;;;;;;8.8;3.3;;;;;;;22.4;56.75;;;;;
2023/07/03 07:20:55;;;;;;;8.8;3.3;;;;;;;22.75;56.27;;;;;
2023/07/03 07:30:55;;;;;;;6.9;4.2;;;;;;;23.03;52.25;;;;;
2023/07/03 07:41:56;;;;;;;6.9;4.2;;;;;;;23.36;45.26;;;;;
2023/07/03 07:52:56;;;;;;;5.6;3.4;;;;;;;23.9;46.83;;;;;
2023/07/03 08:02:55;;;;;;;5.6;3.4;;;;;;;23.78;44.55;;;;;
2023/07/03 08:13:55;;;;;;;5.6;3.4;;;;;;;24.08;42.85;;;;;
2023/07/03 08:23:55;;;;;;;7.2;4.6;;;;;;;24.74;40.98;;;;;
2023/07/03 08:34:55;;;;;;;7.2;4.6;;;;;;;24.54;39.9;;;;;
2023/07/03 08:44:55;;;;;;;7.2;4.6;;;;;;;24.65;42.28;;;;;
2023/07/03 08:55:55;;;;;;;7.1;4.3;;;;;;;24.73;40.48;;;;;
2023/07/03 09:06:55;;;;;;;7.1;4.3;;;;;;;24.94;40.55;;;;;
2023/07/03 09:16:55;;;;;;;7.1;4.3;;;;;;;24.83;40.83;;;;;
2023/07/03 09:26:55;;;;;;;8.7;5.4;;;;;;;24.82;40.8;;;;;
2023/07/03 09:37:55;;;;;;;8.7;5.4;;;;;;;24.99;40.37;;;;;
2023/07/03 09:48:55;;;;;;;8.7;5.4;;;;;;;24.7;37.28;;;;;
2023/07/03 09:58:55;;;;;;;11.4;7.2;;;;;;;24.84;38.48;;;;;
2023/07/03 10:09:55;;;;;;;11.4;7.2;;;;;;;25.02;39.12;;;;;
2023/07/03 10:19:55;;;;;;;11.4;7.2;;;;;;;24.96;37.86;;;;;
2023/07/03 10:29:55;;;;;;;17.6;8.8;;;;;;;25.05;40.46;;;;;
2023/07/03 10:39:55;;;;;;;17.6;8.8;;;;;;;25.31;37.43;;;;;
2023/07/03 10:50:57;;;;;;;17.6;8.8;;;;;;;25.48;38.69;;;;;
2023/07/03 11:01:55;;;;;;;12.4;8.8;;;;;;;26.36;38.4;;;;;
2023/07/03 11:12:55;;;;;;;12.4;8.8;;;;;;;25.79;37.48;;;;;
2023/07/03 11:23:55;;;;;;;11.1;8.1;;;;;;;25.86;36.71;;;;;
2023/07/03 11:34:55;;;;;;;11.1;8.1;;;;;;;25.81;38.43;;;;;
2023/07/03 11:45:55;;;;;;;11.1;8.1;;;;;;;25.9;37.76;;;;;
2023/07/03 11:55:55;;;;;;;12.9;8;;;;;;;26.39;34.82;;;;;
2023/07/03 12:06:55;;;;;;;12.9;8;;;;;;;26.31;36.63;;;;;
2023/07/03 12:16:55;;;;;;;12.9;8;;;;;;;26.36;36.6;;;;;
2023/07/03 12:26:55;;;;;;;12.5;7.1;;;;;;;26.98;36.73;;;;;
2023/07/03 12:36:55;;;;;;;12.5;7.1;;;;;;;26.67;34.88;;;;;
2023/07/03 12:46:56;;;;;;;12.5;7.1;;;;;;;26.68;36.79;;;;;
2023/07/03 12:56:56;;;;;;;13.9;8.4;;;;;;;26.91;37.38;;;;;
2023/07/03 13:07:55;;;;;;;13.9;8.4;;;;;;;27.03;36.49;;;;;
2023/07/03 13:17:55;;;;;;;13.9;8.4;;;;;;;26.65;36.57;;;;;
2023/07/03 13:27:55;;;;;;;15.8;8.8;;;;;;;26.95;35.8;;;;;
2023/07/03 13:37:55;;;;;;;15.8;8.8;;;;;;;26.85;36.78;;;;;
2023/07/03 13:47:55;;;;;;;15.8;8.8;;;;;;;27.54;35.94;;;;;
2023/07/03 13:58:55;;;;;;;16.4;8;;;;;;;27.91;35.96;;;;;
2023/07/03 14:09:57;;;;;;;16.4;8;;;;;;;28.25;34.85;;;;;
2023/07/03 14:20:55;;;;;;;16.4;8;;;;;;;28.01;36;;;;;
2023/07/03 14:31:55;;;;;;;13.1;8.8;;;;;;;28.02;35.89;;;;;
2023/07/03 14:41:55;;;;;;;13.1;8.8;;;;;;;27.91;35.5;;;;;
2023/07/03 14:52:55;;;;;;;15.9;8.9;;;;;;;28.61;36.98;;;;;
2023/07/03 15:02:55;;;;;;;15.9;8.9;;;;;;;28.02;36.06;;;;;
2023/07/03 15:12:56;;;;;;;15.9;8.9;;;;;;;28.27;37.35;;;;;
2023/07/03 15:22:55;;;;;;;12.7;8.7;;;;;;;31.03;31.75;;;;;
2023/07/03 15:33:55;;;;;;;12.7;8.7;;;;;;;32.78;29.95;;;;;
2023/07/03 15:44:55;;;;;;;12.7;8.7;;;;;;;33.88;29.22;;;;;
2023/07/03 15:55:55;;;;;;;14;8.2;;;;;;;33.27;28.53;;;;;
2023/07/03 16:05:56;;;;;;;14;8.2;;;;;;;33.22;28.6;;;;;
2023/07/03 16:16:56;;;;;;;14;8.2;;;;;;;32.73;29.19;;;;;
2023/07/03 16:26:55;;;;;;;12.3;7.8;;;;;;;33.81;28.53;;;;;
2023/07/03 16:36:55;;;;;;;12.3;7.8;;;;;;;34.3;28.84;;;;;
2023/07/03 16:46:55;;;;;;;12.3;7.8;;;;;;;34.87;27.52;;;;;
2023/07/03 16:56:55;;;;;;;12.3;8.1;;;;;;;35.93;27;;;;;
2023/07/03 17:07:55;;;;;;;12.3;8.1;;;;;;;34.56;27.72;;;;;
2023/07/03 17:17:55;;;;;;;12.3;8.1;;;;;;;30.46;32.85;;;;;
2023/07/03 17:27:55;;;;;;;15;8.4;;;;;;;28.49;36.39;;;;;
2023/07/03 17:37:55;;;;;;;15;8.4;;;;;;;29.47;35.05;;;;;
2023/07/03 17:48:55;;;;;;;15;8.4;;;;;;;29.02;35.02;;;;;
2023/07/03 17:58:55;;;;;;;17.3;10.3;;;;;;;28.69;39.25;;;;;
2023/07/03 18:08:55;;;;;;;17.3;10.3;;;;;;;27.96;39.75;;;;;
2023/07/03 18:18:55;;;;;;;17.3;10.3;;;;;;;26.38;43.9;;;;;
2023/07/03 18:29:56;;;;;;;15.1;9.8;;;;;;;24.73;48.36;;;;;
2023/07/03 18:39:56;;;;;;;15.1;9.8;;;;;;;23.83;50.39;;;;;
2023/07/03 18:50:56;;;;;;;15.1;9.8;;;;;;;23;52.7;;;;;
2023/07/03 19:00:55;;;;;;;15.1;11.2;;;;;;;22.24;53.88;;;;;
2023/07/03 19:11:56;;;;;;;15.1;11.2;;;;;;;21.66;58.53;;;;;
2023/07/03 19:22:56;;;;;;;15.1;11.2;;;;;;;21.26;62.22;;;;;
2023/07/03 19:32:56;;;;;;;14.4;10.2;;;;;;;21;62.28;;;;;
2023/07/03 19:43:56;;;;;;;14.4;10.2;;;;;;;20.75;61.94;;;;;
2023/07/03 19:53:55;;;;;;;22.7;16.8;;;;;;;20.61;62.27;;;;;
2023/07/03 20:03:55;;;;;;;22.7;16.8;;;;;;;20.51;62.22;;;;;
2023/07/03 20:13:56;;;;;;;22.7;16.8;;;;;;;20.51;61.64;;;;;
2023/07/03 20:23:56;;;;;;;18.2;13;;;;;;;20.46;61.86;;;;;
2023/07/03 20:34:56;;;;;;;18.2;13;;;;;;;20.44;62.06;;;;;
2023/07/03 20:45:56;;;;;;;18.2;13;;;;;;;20.21;67.48;;;;;
2023/07/03 20:56:56;;;;;;;15.2;11.2;;;;;;;20.05;68.34;;;;;
2023/07/03 21:06:56;;;;;;;15.2;11.2;;;;;;;20.04;66.61;;;;;
2023/07/03 21:16:56;;;;;;;15.2;11.2;;;;;;;20.01;66.58;;;;;
2023/07/03 21:27:56;;;;;;;23.8;11.8;;;;;;;20.01;67.28;;;;;
2023/07/03 21:37:56;;;;;;;23.8;11.8;;;;;;;19.87;70.94;;;;;
2023/07/03 21:48:56;;;;;;;23.8;11.8;;;;;;;19.88;70.85;;;;;
2023/07/03 21:58:56;;;;;;;15;12;;;;;;;19.92;70.97;;;;;
2023/07/03 22:08:56;;;;;;;15;12;;;;;;;19.91;71.8;;;;;
2023/07/03 22:18:56;;;;;;;15;12;;;;;;;19.87;72.2;;;;;
2023/07/03 22:28:56;;;;;;;17.4;12.4;;;;;;;19.81;71.85;;;;;
2023/07/03 22:39:56;;;;;;;17.4;12.4;;;;;;;19.79;71.25;;;;;
2023/07/03 22:50:56;;;;;;;17.4;12.4;;;;;;;19.65;72.5;;;;;
2023/07/03 23:01:56;;;;;;;17.5;12.2;;;;;;;19.57;71.88;;;;;
2023/07/03 23:11:56;;;;;;;17.5;12.2;;;;;;;19.5;70.64;;;;;
2023/07/03 23:21:56;;;;;;;17.5;12.2;;;;;;;19.46;70.94;;;;;
2023/07/03 23:31:56;;;;;;;17.2;12.2;;;;;;;19.4;71.25;;;;;
2023/07/03 23:41:56;;;;;;;17.2;12.2;;;;;;;19.39;70.34;;;;;
2023/07/03 23:52:56;;;;;;;17.2;12.2;;;;;;;19.33;70.68;;;;;
